sensor_id;sensor_type;location;lat;lon;timestamp;P1;durP1;ratioP1;P2;durP2;ratioP2
73100;SDS011;61288;53.446;-2.266;2023-03-04T00:01:38;10.07;;;2.70;;
73100;SDS011;61288;53.446;-2.266;2023-03-04T00:04:04;9.77;;;2.75;;
73100;SDS011;61288;53.446;-2.266;2023-03-04T00:06:29;9.25;;;2.75;;
73100;SDS011;61288;53.446;-2.266;2023-03-04T00:08:55;9.88;;;2.40;;
73100;SDS011;61288;53.446;-2.266;2023-03-04T00:11:20;7.32;;;2.20;;
73100;SDS011;61288;53.446;-2.266;2023-03-04T00:13:46;9.35;;;2.80;;
73100;SDS011;61288;53.446;-2.266;2023-03-04T00:16:11;9.60;;;2.10;;
73100;SDS011;61288;53.446;-2.266;2023-03-04T00:18:37;6.70;;;2.22;;
73100;SDS011;61288;53.446;-2.266;2023-03-04T00:21:03;6.60;;;2.20;;
73100;SDS011;61288;53.446;-2.266;2023-03-04T00:23:29;9.90;;;2.50;;
73100;SDS011;61288;53.446;-2.266;2023-03-04T00:25:54;10.85;;;2.75;;
73100;SDS011;61288;53.446;-2.266;2023-03-04T00:28:20;12.85;;;2.45;;
73100;SDS011;61288;53.446;-2.266;2023-03-04T00:30:47;9.05;;;2.28;;
73100;SDS011;61288;53.446;-2.266;2023-03-04T00:33:12;6.63;;;2.40;;
73100;SDS011;61288;53.446;-2.266;2023-03-04T00:35:38;7.60;;;2.13;;
73100;SDS011;61288;53.446;-2.266;2023-03-04T00:38:03;10.40;;;2.58;;
73100;SDS011;61288;53.446;-2.266;2023-03-04T00:40:29;11.18;;;3.10;;
73100;SDS011;61288;53.446;-2.266;2023-03-04T00:42:54;9.82;;;2.80;;
73100;SDS011;61288;53.446;-2.266;2023-03-04T00:45:20;8.70;;;2.80;;
73100;SDS011;61288;53.446;-2.266;2023-03-04T00:47:45;12.93;;;2.90;;
73100;SDS011;61288;53.446;-2.266;2023-03-04T00:50:11;9.02;;;3.08;;
73100;SDS011;61288;53.446;-2.266;2023-03-04T00:52:36;10.95;;;3.00;;
73100;SDS011;61288;53.446;-2.266;2023-03-04T00:55:02;9.05;;;2.97;;
73100;SDS011;61288;53.446;-2.266;2023-03-04T00:57:28;10.50;;;3.10;;
73100;SDS011;61288;53.446;-2.266;2023-03-04T00:59:53;9.85;;;3.35;;
73100;SDS011;61288;53.446;-2.266;2023-03-04T01:02:19;9.95;;;3.67;;
73100;SDS011;61288;53.446;-2.266;2023-03-04T01:04:44;11.07;;;3.05;;
73100;SDS011;61288;53.446;-2.266;2023-03-04T01:07:10;11.05;;;3.45;;
73100;SDS011;61288;53.446;-2.266;2023-03-04T01:09:35;9.07;;;3.08;;
73100;SDS011;61288;53.446;-2.266;2023-03-04T01:12:01;14.35;;;4.22;;
73100;SDS011;61288;53.446;-2.266;2023-03-04T01:14:27;11.55;;;3.15;;
73100;SDS011;61288;53.446;-2.266;2023-03-04T01:16:53;13.10;;;3.50;;
73100;SDS011;61288;53.446;-2.266;2023-03-04T01:19:18;12.07;;;3.83;;
73100;SDS011;61288;53.446;-2.266;2023-03-04T01:21:44;9.73;;;3.30;;
73100;SDS011;61288;53.446;-2.266;2023-03-04T01:24:10;20.77;;;4.00;;
73100;SDS011;61288;53.446;-2.266;2023-03-04T01:26:36;9.95;;;3.35;;
73100;SDS011;61288;53.446;-2.266;2023-03-04T01:29:02;11.35;;;3.55;;
73100;SDS011;61288;53.446;-2.266;2023-03-04T01:31:27;12.73;;;3.67;;
73100;SDS011;61288;53.446;-2.266;2023-03-04T01:33:53;9.77;;;3.45;;
73100;SDS011;61288;53.446;-2.266;2023-03-04T01:36:20;13.23;;;3.55;;
73100;SDS011;61288;53.446;-2.266;2023-03-04T01:38:46;10.30;;;3.42;;
73100;SDS011;61288;53.446;-2.266;2023-03-04T01:41:12;11.48;;;3.10;;
73100;SDS011;61288;53.446;-2.266;2023-03-04T01:43:38;11.30;;;2.90;;
73100;SDS011;61288;53.446;-2.266;2023-03-04T01:46:05;9.43;;;3.42;;
73100;SDS011;61288;53.446;-2.266;2023-03-04T01:48:32;13.50;;;3.65;;
73100;SDS011;61288;53.446;-2.266;2023-03-04T01:51:01;8.98;;;3.08;;
73100;SDS011;61288;53.446;-2.266;2023-03-04T01:53:28;10.98;;;2.42;;
73100;SDS011;61288;53.446;-2.266;2023-03-04T01:55:56;10.52;;;2.60;;
73100;SDS011;61288;53.446;-2.266;2023-03-04T01:58:25;9.98;;;2.70;;
73100;SDS011;61288;53.446;-2.266;2023-03-04T02:00:55;7.97;;;2.30;;
73100;SDS011;61288;53.446;-2.266;2023-03-04T02:03:21;7.25;;;1.95;;
73100;SDS011;61288;53.446;-2.266;2023-03-04T02:05:47;10.00;;;2.20;;
73100;SDS011;61288;53.446;-2.266;2023-03-04T02:08:14;5.97;;;1.92;;
73100;SDS011;61288;53.446;-2.266;2023-03-04T02:10:42;9.23;;;2.47;;
73100;SDS011;61288;53.446;-2.266;2023-03-04T02:13:09;6.80;;;2.00;;
73100;SDS011;61288;53.446;-2.266;2023-03-04T02:15:36;6.55;;;1.92;;
73100;SDS011;61288;53.446;-2.266;2023-03-04T02:18:02;6.72;;;1.95;;
73100;SDS011;61288;53.446;-2.266;2023-03-04T02:26:21;10.38;;;2.10;;
73100;SDS011;61288;53.446;-2.266;2023-03-04T02:28:57;7.43;;;2.15;;
73100;SDS011;61288;53.446;-2.266;2023-03-04T02:33:52;11.13;;;2.40;;
73100;SDS011;61288;53.446;-2.266;2023-03-04T02:36:20;8.27;;;2.50;;
73100;SDS011;61288;53.446;-2.266;2023-03-04T02:38:47;8.98;;;2.05;;
73100;SDS011;61288;53.446;-2.266;2023-03-04T02:41:15;8.15;;;2.25;;
73100;SDS011;61288;53.446;-2.266;2023-03-04T02:43:45;11.63;;;2.55;;
73100;SDS011;61288;53.446;-2.266;2023-03-04T02:46:12;10.18;;;2.80;;
73100;SDS011;61288;53.446;-2.266;2023-03-04T02:48:38;9.15;;;2.80;;
73100;SDS011;61288;53.446;-2.266;2023-03-04T02:51:04;7.32;;;2.67;;
73100;SDS011;61288;53.446;-2.266;2023-03-04T02:53:29;8.10;;;2.42;;
73100;SDS011;61288;53.446;-2.266;2023-03-04T02:55:55;12.38;;;2.95;;
73100;SDS011;61288;53.446;-2.266;2023-03-04T02:58:20;7.97;;;2.45;;
73100;SDS011;61288;53.446;-2.266;2023-03-04T03:00:46;11.70;;;3.35;;
73100;SDS011;61288;53.446;-2.266;2023-03-04T03:03:11;11.32;;;3.47;;
73100;SDS011;61288;53.446;-2.266;2023-03-04T03:05:37;8.43;;;2.97;;
73100;SDS011;61288;53.446;-2.266;2023-03-04T03:08:04;11.15;;;3.47;;
73100;SDS011;61288;53.446;-2.266;2023-03-04T03:10:30;11.10;;;3.20;;
73100;SDS011;61288;53.446;-2.266;2023-03-04T03:12:56;8.88;;;2.92;;
73100;SDS011;61288;53.446;-2.266;2023-03-04T03:15:22;11.88;;;3.30;;
73100;SDS011;61288;53.446;-2.266;2023-03-04T03:17:47;11.93;;;3.03;;
73100;SDS011;61288;53.446;-2.266;2023-03-04T03:20:13;13.32;;;3.38;;
73100;SDS011;61288;53.446;-2.266;2023-03-04T03:22:39;12.45;;;3.17;;
73100;SDS011;61288;53.446;-2.266;2023-03-04T03:25:05;11.07;;;3.90;;
73100;SDS011;61288;53.446;-2.266;2023-03-04T03:27:32;14.38;;;3.15;;
73100;SDS011;61288;53.446;-2.266;2023-03-04T03:29:58;12.75;;;3.53;;
73100;SDS011;61288;53.446;-2.266;2023-03-04T03:32:25;13.25;;;3.45;;
73100;SDS011;61288;53.446;-2.266;2023-03-04T03:34:50;10.80;;;3.22;;
73100;SDS011;61288;53.446;-2.266;2023-03-04T03:37:17;13.00;;;3.92;;
73100;SDS011;61288;53.446;-2.266;2023-03-04T03:39:43;9.15;;;3.25;;
73100;SDS011;61288;53.446;-2.266;2023-03-04T03:42:09;11.98;;;3.45;;
73100;SDS011;61288;53.446;-2.266;2023-03-04T03:44:34;11.73;;;3.38;;
73100;SDS011;61288;53.446;-2.266;2023-03-04T03:47:00;8.68;;;3.30;;
73100;SDS011;61288;53.446;-2.266;2023-03-04T03:49:26;11.50;;;3.70;;
73100;SDS011;61288;53.446;-2.266;2023-03-04T03:51:52;11.57;;;3.72;;
73100;SDS011;61288;53.446;-2.266;2023-03-04T03:54:18;8.32;;;3.35;;
73100;SDS011;61288;53.446;-2.266;2023-03-04T03:56:46;9.63;;;3.22;;
73100;SDS011;61288;53.446;-2.266;2023-03-04T03:59:11;11.90;;;3.55;;
73100;SDS011;61288;53.446;-2.266;2023-03-04T04:01:37;10.68;;;3.53;;
73100;SDS011;61288;53.446;-2.266;2023-03-04T04:04:02;8.65;;;3.08;;
73100;SDS011;61288;53.446;-2.266;2023-03-04T04:06:28;12.07;;;3.55;;
73100;SDS011;61288;53.446;-2.266;2023-03-04T04:08:53;10.38;;;3.50;;
73100;SDS011;61288;53.446;-2.266;2023-03-04T04:11:19;12.23;;;3.45;;
73100;SDS011;61288;53.446;-2.266;2023-03-04T04:13:45;9.93;;;3.30;;
73100;SDS011;61288;53.446;-2.266;2023-03-04T04:16:10;13.50;;;3.70;;
73100;SDS011;61288;53.446;-2.266;2023-03-04T04:18:36;10.82;;;3.00;;
73100;SDS011;61288;53.446;-2.266;2023-03-04T04:21:02;10.40;;;3.35;;
73100;SDS011;61288;53.446;-2.266;2023-03-04T04:23:29;11.88;;;3.38;;
73100;SDS011;61288;53.446;-2.266;2023-03-04T04:25:55;12.43;;;3.47;;
73100;SDS011;61288;53.446;-2.266;2023-03-04T04:28:23;12.93;;;3.40;;
73100;SDS011;61288;53.446;-2.266;2023-03-04T04:30:51;11.18;;;3.28;;
73100;SDS011;61288;53.446;-2.266;2023-03-04T04:33:19;10.48;;;3.10;;
73100;SDS011;61288;53.446;-2.266;2023-03-04T04:35:44;10.63;;;3.58;;
73100;SDS011;61288;53.446;-2.266;2023-03-04T04:38:10;12.35;;;3.53;;
73100;SDS011;61288;53.446;-2.266;2023-03-04T04:40:36;10.43;;;3.83;;
73100;SDS011;61288;53.446;-2.266;2023-03-04T04:43:01;10.02;;;2.90;;
73100;SDS011;61288;53.446;-2.266;2023-03-04T04:45:27;15.48;;;3.33;;
73100;SDS011;61288;53.446;-2.266;2023-03-04T04:47:53;10.25;;;3.17;;
73100;SDS011;61288;53.446;-2.266;2023-03-04T04:50:21;11.55;;;3.03;;
73100;SDS011;61288;53.446;-2.266;2023-03-04T04:52:48;9.85;;;3.17;;
73100;SDS011;61288;53.446;-2.266;2023-03-04T04:55:13;10.90;;;3.03;;
73100;SDS011;61288;53.446;-2.266;2023-03-04T04:57:39;7.75;;;3.17;;
73100;SDS011;61288;53.446;-2.266;2023-03-04T05:00:05;9.73;;;2.88;;
73100;SDS011;61288;53.446;-2.266;2023-03-04T05:02:34;10.07;;;3.15;;
73100;SDS011;61288;53.446;-2.266;2023-03-04T05:05:02;10.48;;;3.20;;
73100;SDS011;61288;53.446;-2.266;2023-03-04T05:07:30;9.35;;;2.67;;
73100;SDS011;61288;53.446;-2.266;2023-03-04T05:09:57;7.13;;;2.70;;
73100;SDS011;61288;53.446;-2.266;2023-03-04T05:12:23;8.57;;;3.05;;
73100;SDS011;61288;53.446;-2.266;2023-03-04T05:14:48;7.53;;;2.83;;
73100;SDS011;61288;53.446;-2.266;2023-03-04T05:17:14;10.35;;;3.15;;
73100;SDS011;61288;53.446;-2.266;2023-03-04T05:19:40;8.85;;;2.90;;
73100;SDS011;61288;53.446;-2.266;2023-03-04T05:22:05;12.25;;;3.13;;
73100;SDS011;61288;53.446;-2.266;2023-03-04T05:24:34;10.20;;;3.10;;
73100;SDS011;61288;53.446;-2.266;2023-03-04T05:27:00;10.15;;;2.88;;
73100;SDS011;61288;53.446;-2.266;2023-03-04T05:29:26;8.43;;;2.67;;
73100;SDS011;61288;53.446;-2.266;2023-03-04T05:37:43;12.63;;;3.25;;
73100;SDS011;61288;53.446;-2.266;2023-03-04T05:40:09;8.65;;;2.80;;
73100;SDS011;61288;53.446;-2.266;2023-03-04T05:42:36;9.55;;;2.95;;
73100;SDS011;61288;53.446;-2.266;2023-03-04T05:45:01;8.60;;;2.72;;
73100;SDS011;61288;53.446;-2.266;2023-03-04T05:47:27;11.13;;;2.80;;
73100;SDS011;61288;53.446;-2.266;2023-03-04T05:49:52;7.13;;;2.47;;
73100;SDS011;61288;53.446;-2.266;2023-03-04T05:52:19;8.10;;;2.53;;
73100;SDS011;61288;53.446;-2.266;2023-03-04T05:54:44;8.85;;;3.00;;
73100;SDS011;61288;53.446;-2.266;2023-03-04T05:57:10;12.98;;;2.70;;
73100;SDS011;61288;53.446;-2.266;2023-03-04T05:59:35;8.60;;;2.95;;
73100;SDS011;61288;53.446;-2.266;2023-03-04T06:02:01;6.88;;;2.40;;
73100;SDS011;61288;53.446;-2.266;2023-03-04T06:04:26;8.95;;;2.90;;
73100;SDS011;61288;53.446;-2.266;2023-03-04T06:06:51;10.13;;;3.10;;
73100;SDS011;61288;53.446;-2.266;2023-03-04T06:09:17;8.23;;;2.58;;
73100;SDS011;61288;53.446;-2.266;2023-03-04T06:11:45;9.75;;;3.03;;
73100;SDS011;61288;53.446;-2.266;2023-03-04T06:14:10;8.60;;;2.70;;
73100;SDS011;61288;53.446;-2.266;2023-03-04T06:16:36;10.73;;;2.75;;
73100;SDS011;61288;53.446;-2.266;2023-03-04T06:19:01;9.32;;;2.75;;
73100;SDS011;61288;53.446;-2.266;2023-03-04T06:21:27;8.88;;;2.13;;
73100;SDS011;61288;53.446;-2.266;2023-03-04T06:23:52;7.40;;;2.60;;
73100;SDS011;61288;53.446;-2.266;2023-03-04T06:26:17;10.25;;;2.72;;
73100;SDS011;61288;53.446;-2.266;2023-03-04T06:28:43;9.80;;;2.45;;
73100;SDS011;61288;53.446;-2.266;2023-03-04T06:31:09;10.07;;;2.67;;
73100;SDS011;61288;53.446;-2.266;2023-03-04T06:33:34;8.82;;;2.35;;
73100;SDS011;61288;53.446;-2.266;2023-03-04T06:36:01;8.27;;;2.60;;
73100;SDS011;61288;53.446;-2.266;2023-03-04T06:38:27;7.60;;;2.40;;
73100;SDS011;61288;53.446;-2.266;2023-03-04T06:40:53;10.65;;;2.50;;
73100;SDS011;61288;53.446;-2.266;2023-03-04T06:43:18;6.97;;;2.05;;
73100;SDS011;61288;53.446;-2.266;2023-03-04T06:45:44;6.53;;;2.13;;
73100;SDS011;61288;53.446;-2.266;2023-03-04T06:48:10;8.70;;;2.28;;
73100;SDS011;61288;53.446;-2.266;2023-03-04T06:50:36;14.80;;;2.90;;
73100;SDS011;61288;53.446;-2.266;2023-03-04T06:53:03;6.55;;;2.03;;
73100;SDS011;61288;53.446;-2.266;2023-03-04T06:55:28;10.27;;;2.50;;
73100;SDS011;61288;53.446;-2.266;2023-03-04T06:57:55;10.10;;;2.70;;
73100;SDS011;61288;53.446;-2.266;2023-03-04T07:00:20;9.85;;;2.53;;
73100;SDS011;61288;53.446;-2.266;2023-03-04T07:02:48;12.13;;;2.95;;
73100;SDS011;61288;53.446;-2.266;2023-03-04T07:05:13;9.70;;;2.50;;
73100;SDS011;61288;53.446;-2.266;2023-03-04T07:07:38;8.65;;;2.60;;
73100;SDS011;61288;53.446;-2.266;2023-03-04T07:10:04;9.18;;;2.85;;
73100;SDS011;61288;53.446;-2.266;2023-03-04T07:12:30;11.60;;;2.70;;
73100;SDS011;61288;53.446;-2.266;2023-03-04T07:14:56;9.40;;;2.70;;
73100;SDS011;61288;53.446;-2.266;2023-03-04T07:17:21;8.70;;;2.80;;
73100;SDS011;61288;53.446;-2.266;2023-03-04T07:19:47;9.30;;;2.80;;
73100;SDS011;61288;53.446;-2.266;2023-03-04T07:22:12;9.70;;;3.13;;
73100;SDS011;61288;53.446;-2.266;2023-03-04T07:24:38;10.40;;;3.00;;
73100;SDS011;61288;53.446;-2.266;2023-03-04T07:27:03;9.77;;;2.50;;
73100;SDS011;61288;53.446;-2.266;2023-03-04T07:29:29;8.45;;;2.70;;
73100;SDS011;61288;53.446;-2.266;2023-03-04T07:31:54;6.53;;;2.20;;
73100;SDS011;61288;53.446;-2.266;2023-03-04T07:34:20;8.88;;;2.78;;
73100;SDS011;61288;53.446;-2.266;2023-03-04T07:36:45;8.55;;;2.88;;
73100;SDS011;61288;53.446;-2.266;2023-03-04T07:39:11;8.75;;;2.88;;
73100;SDS011;61288;53.446;-2.266;2023-03-04T07:41:37;8.35;;;2.75;;
73100;SDS011;61288;53.446;-2.266;2023-03-04T07:44:04;8.93;;;2.63;;
73100;SDS011;61288;53.446;-2.266;2023-03-04T07:46:31;10.75;;;2.75;;
73100;SDS011;61288;53.446;-2.266;2023-03-04T07:48:58;7.20;;;2.50;;
73100;SDS011;61288;53.446;-2.266;2023-03-04T07:51:25;13.15;;;3.42;;
73100;SDS011;61288;53.446;-2.266;2023-03-04T07:53:55;10.43;;;3.50;;
73100;SDS011;61288;53.446;-2.266;2023-03-04T07:56:24;12.38;;;2.75;;
73100;SDS011;61288;53.446;-2.266;2023-03-04T07:58:51;10.70;;;3.67;;
73100;SDS011;61288;53.446;-2.266;2023-03-04T08:01:30;8.07;;;2.83;;
73100;SDS011;61288;53.446;-2.266;2023-03-04T08:03:58;11.65;;;3.33;;
73100;SDS011;61288;53.446;-2.266;2023-03-04T08:06:24;10.13;;;3.00;;
73100;SDS011;61288;53.446;-2.266;2023-03-04T08:08:54;10.68;;;2.92;;
73100;SDS011;61288;53.446;-2.266;2023-03-04T08:13:48;10.40;;;2.42;;
73100;SDS011;61288;53.446;-2.266;2023-03-04T08:16:14;9.93;;;2.90;;
73100;SDS011;61288;53.446;-2.266;2023-03-04T08:18:45;11.38;;;3.20;;
73100;SDS011;61288;53.446;-2.266;2023-03-04T08:21:13;10.75;;;2.70;;
73100;SDS011;61288;53.446;-2.266;2023-03-04T08:23:43;9.68;;;2.80;;
73100;SDS011;61288;53.446;-2.266;2023-03-04T08:26:10;8.02;;;2.42;;
73100;SDS011;61288;53.446;-2.266;2023-03-04T08:28:38;8.73;;;2.72;;
73100;SDS011;61288;53.446;-2.266;2023-03-04T08:31:04;7.90;;;2.70;;
73100;SDS011;61288;53.446;-2.266;2023-03-04T08:33:30;9.63;;;3.08;;
73100;SDS011;61288;53.446;-2.266;2023-03-04T08:35:57;11.65;;;3.28;;
73100;SDS011;61288;53.446;-2.266;2023-03-04T08:38:22;10.00;;;3.03;;
73100;SDS011;61288;53.446;-2.266;2023-03-04T08:40:52;8.40;;;2.60;;
73100;SDS011;61288;53.446;-2.266;2023-03-04T08:43:21;8.35;;;2.33;;
73100;SDS011;61288;53.446;-2.266;2023-03-04T08:45:48;10.45;;;2.70;;
73100;SDS011;61288;53.446;-2.266;2023-03-04T08:48:13;9.30;;;2.40;;
73100;SDS011;61288;53.446;-2.266;2023-03-04T08:50:42;9.45;;;2.50;;
73100;SDS011;61288;53.446;-2.266;2023-03-04T08:53:10;8.05;;;2.67;;
73100;SDS011;61288;53.446;-2.266;2023-03-04T08:55:37;9.40;;;2.42;;
73100;SDS011;61288;53.446;-2.266;2023-03-04T08:58:03;8.38;;;2.50;;
73100;SDS011;61288;53.446;-2.266;2023-03-04T09:00:29;11.40;;;3.78;;
73100;SDS011;61288;53.446;-2.266;2023-03-04T09:02:55;8.77;;;2.30;;
73100;SDS011;61288;53.446;-2.266;2023-03-04T09:05:21;8.68;;;2.63;;
73100;SDS011;61288;53.446;-2.266;2023-03-04T09:07:47;8.05;;;2.90;;
73100;SDS011;61288;53.446;-2.266;2023-03-04T09:10:12;7.63;;;2.40;;
73100;SDS011;61288;53.446;-2.266;2023-03-04T09:12:38;7.88;;;2.80;;
73100;SDS011;61288;53.446;-2.266;2023-03-04T09:15:03;11.13;;;3.00;;
73100;SDS011;61288;53.446;-2.266;2023-03-04T09:17:30;7.40;;;2.65;;
73100;SDS011;61288;53.446;-2.266;2023-03-04T09:19:56;8.90;;;2.50;;
73100;SDS011;61288;53.446;-2.266;2023-03-04T09:22:22;11.10;;;2.38;;
73100;SDS011;61288;53.446;-2.266;2023-03-04T09:24:47;8.05;;;2.50;;
73100;SDS011;61288;53.446;-2.266;2023-03-04T09:27:12;8.38;;;2.42;;
73100;SDS011;61288;53.446;-2.266;2023-03-04T09:29:38;7.25;;;2.20;;
73100;SDS011;61288;53.446;-2.266;2023-03-04T09:32:04;9.40;;;2.63;;
73100;SDS011;61288;53.446;-2.266;2023-03-04T09:34:30;7.90;;;2.40;;
73100;SDS011;61288;53.446;-2.266;2023-03-04T09:36:55;7.18;;;2.38;;
73100;SDS011;61288;53.446;-2.266;2023-03-04T09:39:21;6.40;;;2.35;;
73100;SDS011;61288;53.446;-2.266;2023-03-04T09:41:51;9.93;;;2.78;;
73100;SDS011;61288;53.446;-2.266;2023-03-04T09:44:28;9.27;;;2.90;;
73100;SDS011;61288;53.446;-2.266;2023-03-04T09:47:11;7.88;;;2.25;;
73100;SDS011;61288;53.446;-2.266;2023-03-04T09:49:47;7.75;;;2.78;;
73100;SDS011;61288;53.446;-2.266;2023-03-04T09:57:55;9.02;;;2.45;;
73100;SDS011;61288;53.446;-2.266;2023-03-04T10:00:56;7.22;;;2.22;;
73100;SDS011;61288;53.446;-2.266;2023-03-04T10:10:44;13.10;;;2.38;;
73100;SDS011;61288;53.446;-2.266;2023-03-04T10:13:13;9.38;;;2.40;;
73100;SDS011;61288;53.446;-2.266;2023-03-04T10:15:42;9.00;;;2.65;;
73100;SDS011;61288;53.446;-2.266;2023-03-04T10:20:43;8.90;;;2.80;;
73100;SDS011;61288;53.446;-2.266;2023-03-04T10:23:18;6.78;;;2.25;;
73100;SDS011;61288;53.446;-2.266;2023-03-04T10:25:49;8.75;;;2.20;;
73100;SDS011;61288;53.446;-2.266;2023-03-04T10:28:20;11.77;;;2.33;;
73100;SDS011;61288;53.446;-2.266;2023-03-04T10:33:40;9.20;;;2.25;;
73100;SDS011;61288;53.446;-2.266;2023-03-04T10:39:06;8.05;;;2.60;;
73100;SDS011;61288;53.446;-2.266;2023-03-04T10:41:35;9.15;;;2.72;;
73100;SDS011;61288;53.446;-2.266;2023-03-04T10:46:26;12.38;;;2.55;;
73100;SDS011;61288;53.446;-2.266;2023-03-04T10:48:52;11.65;;;2.97;;
73100;SDS011;61288;53.446;-2.266;2023-03-04T10:51:22;12.82;;;2.60;;
73100;SDS011;61288;53.446;-2.266;2023-03-04T10:53:56;11.02;;;2.63;;
73100;SDS011;61288;53.446;-2.266;2023-03-04T11:04:56;8.98;;;2.55;;
73100;SDS011;61288;53.446;-2.266;2023-03-04T11:07:41;9.82;;;2.55;;
73100;SDS011;61288;53.446;-2.266;2023-03-04T11:12:49;8.65;;;2.90;;
73100;SDS011;61288;53.446;-2.266;2023-03-04T11:15:21;11.70;;;2.90;;
73100;SDS011;61288;53.446;-2.266;2023-03-04T11:18:12;9.65;;;2.67;;
73100;SDS011;61288;53.446;-2.266;2023-03-04T11:20:39;9.27;;;2.83;;
73100;SDS011;61288;53.446;-2.266;2023-03-04T11:26:13;10.05;;;2.80;;
73100;SDS011;61288;53.446;-2.266;2023-03-04T11:31:36;12.52;;;3.17;;
73100;SDS011;61288;53.446;-2.266;2023-03-04T11:34:32;8.15;;;2.83;;
73100;SDS011;61288;53.446;-2.266;2023-03-04T11:37:04;13.48;;;3.47;;
73100;SDS011;61288;53.446;-2.266;2023-03-04T11:42:23;11.00;;;3.22;;
73100;SDS011;61288;53.446;-2.266;2023-03-04T11:45:12;10.43;;;3.15;;
73100;SDS011;61288;53.446;-2.266;2023-03-04T11:50:22;10.20;;;2.70;;
73100;SDS011;61288;53.446;-2.266;2023-03-04T12:00:54;12.77;;;3.13;;
73100;SDS011;61288;53.446;-2.266;2023-03-04T12:14:36;9.35;;;3.33;;
73100;SDS011;61288;53.446;-2.266;2023-03-04T12:22:45;11.88;;;2.70;;
73100;SDS011;61288;53.446;-2.266;2023-03-04T12:25:29;9.23;;;2.95;;
73100;SDS011;61288;53.446;-2.266;2023-03-04T12:28:13;9.52;;;3.20;;
73100;SDS011;61288;53.446;-2.266;2023-03-04T12:31:12;9.27;;;2.78;;
73100;SDS011;61288;53.446;-2.266;2023-03-04T12:33:54;12.50;;;3.50;;
73100;SDS011;61288;53.446;-2.266;2023-03-04T12:41:54;8.93;;;3.13;;
73100;SDS011;61288;53.446;-2.266;2023-03-04T12:44:41;12.45;;;3.00;;
73100;SDS011;61288;53.446;-2.266;2023-03-04T12:47:43;11.32;;;3.83;;
73100;SDS011;61288;53.446;-2.266;2023-03-04T12:55:31;10.57;;;3.42;;
73100;SDS011;61288;53.446;-2.266;2023-03-04T12:58:03;10.15;;;3.15;;
73100;SDS011;61288;53.446;-2.266;2023-03-04T13:08:47;8.45;;;2.78;;
73100;SDS011;61288;53.446;-2.266;2023-03-04T13:14:04;12.82;;;3.28;;
73100;SDS011;61288;53.446;-2.266;2023-03-04T13:32:58;10.57;;;3.15;;
73100;SDS011;61288;53.446;-2.266;2023-03-04T13:38:23;10.57;;;3.35;;
73100;SDS011;61288;53.446;-2.266;2023-03-04T13:49:01;9.70;;;3.15;;
73100;SDS011;61288;53.446;-2.266;2023-03-04T13:51:30;10.93;;;2.92;;
73100;SDS011;61288;53.446;-2.266;2023-03-04T13:56:38;11.75;;;3.60;;
73100;SDS011;61288;53.446;-2.266;2023-03-04T14:02:00;11.13;;;3.20;;
73100;SDS011;61288;53.446;-2.266;2023-03-04T14:04:34;14.55;;;3.30;;
73100;SDS011;61288;53.446;-2.266;2023-03-04T14:07:23;12.13;;;3.55;;
73100;SDS011;61288;53.446;-2.266;2023-03-04T14:10:05;11.48;;;3.50;;
73100;SDS011;61288;53.446;-2.266;2023-03-04T14:12:44;14.95;;;3.17;;
73100;SDS011;61288;53.446;-2.266;2023-03-04T14:15:21;8.80;;;3.40;;
73100;SDS011;61288;53.446;-2.266;2023-03-04T14:17:56;12.23;;;4.20;;
73100;SDS011;61288;53.446;-2.266;2023-03-04T14:20:25;10.73;;;3.67;;
73100;SDS011;61288;53.446;-2.266;2023-03-04T14:22:57;9.13;;;3.38;;
73100;SDS011;61288;53.446;-2.266;2023-03-04T14:25:28;12.80;;;3.83;;
73100;SDS011;61288;53.446;-2.266;2023-03-04T14:28:09;14.75;;;3.90;;
73100;SDS011;61288;53.446;-2.266;2023-03-04T14:30:41;9.93;;;3.38;;
73100;SDS011;61288;53.446;-2.266;2023-03-04T14:33:08;10.25;;;3.40;;
73100;SDS011;61288;53.446;-2.266;2023-03-04T14:35:39;9.52;;;3.30;;
73100;SDS011;61288;53.446;-2.266;2023-03-04T14:41:38;10.60;;;3.90;;
73100;SDS011;61288;53.446;-2.266;2023-03-04T14:46:45;14.98;;;4.18;;
73100;SDS011;61288;53.446;-2.266;2023-03-04T14:49:14;12.32;;;3.90;;
73100;SDS011;61288;53.446;-2.266;2023-03-04T14:51:53;11.40;;;3.72;;
73100;SDS011;61288;53.446;-2.266;2023-03-04T14:56:58;11.38;;;3.80;;
73100;SDS011;61288;53.446;-2.266;2023-03-04T14:59:29;12.57;;;3.90;;
73100;SDS011;61288;53.446;-2.266;2023-03-04T15:04:56;11.75;;;3.92;;
73100;SDS011;61288;53.446;-2.266;2023-03-04T15:07:29;12.93;;;3.70;;
73100;SDS011;61288;53.446;-2.266;2023-03-04T15:09:58;13.77;;;4.25;;
73100;SDS011;61288;53.446;-2.266;2023-03-04T15:12:29;11.13;;;3.72;;
73100;SDS011;61288;53.446;-2.266;2023-03-04T15:15:00;12.68;;;3.80;;
73100;SDS011;61288;53.446;-2.266;2023-03-04T15:22:27;12.95;;;4.13;;
73100;SDS011;61288;53.446;-2.266;2023-03-04T15:24:54;10.93;;;3.35;;
73100;SDS011;61288;53.446;-2.266;2023-03-04T15:27:20;12.23;;;3.92;;
73100;SDS011;61288;53.446;-2.266;2023-03-04T15:29:48;14.95;;;3.92;;
73100;SDS011;61288;53.446;-2.266;2023-03-04T15:32:15;11.13;;;4.07;;
73100;SDS011;61288;53.446;-2.266;2023-03-04T15:34:41;13.27;;;4.07;;
73100;SDS011;61288;53.446;-2.266;2023-03-04T15:37:08;13.00;;;4.00;;
73100;SDS011;61288;53.446;-2.266;2023-03-04T15:39:42;11.27;;;3.95;;
73100;SDS011;61288;53.446;-2.266;2023-03-04T15:42:08;10.68;;;3.90;;
73100;SDS011;61288;53.446;-2.266;2023-03-04T15:44:37;11.00;;;3.60;;
73100;SDS011;61288;53.446;-2.266;2023-03-04T15:47:03;9.75;;;3.42;;
73100;SDS011;61288;53.446;-2.266;2023-03-04T15:49:28;12.95;;;4.00;;
73100;SDS011;61288;53.446;-2.266;2023-03-04T15:51:54;13.60;;;3.65;;
73100;SDS011;61288;53.446;-2.266;2023-03-04T15:54:19;11.02;;;4.03;;
73100;SDS011;61288;53.446;-2.266;2023-03-04T15:56:50;10.35;;;3.83;;
73100;SDS011;61288;53.446;-2.266;2023-03-04T15:59:16;13.30;;;3.80;;
73100;SDS011;61288;53.446;-2.266;2023-03-04T16:01:42;14.95;;;4.40;;
73100;SDS011;61288;53.446;-2.266;2023-03-04T16:04:10;14.05;;;4.45;;
73100;SDS011;61288;53.446;-2.266;2023-03-04T16:06:37;8.60;;;3.35;;
73100;SDS011;61288;53.446;-2.266;2023-03-04T16:09:03;9.07;;;3.38;;
73100;SDS011;61288;53.446;-2.266;2023-03-04T16:11:29;11.70;;;4.18;;
73100;SDS011;61288;53.446;-2.266;2023-03-04T16:14:00;11.15;;;4.13;;
73100;SDS011;61288;53.446;-2.266;2023-03-04T16:16:27;15.38;;;4.00;;
73100;SDS011;61288;53.446;-2.266;2023-03-04T16:18:52;12.55;;;4.13;;
73100;SDS011;61288;53.446;-2.266;2023-03-04T16:21:18;11.45;;;3.78;;
73100;SDS011;61288;53.446;-2.266;2023-03-04T16:23:48;11.55;;;3.70;;
73100;SDS011;61288;53.446;-2.266;2023-03-04T16:26:22;11.43;;;3.72;;
73100;SDS011;61288;53.446;-2.266;2023-03-04T16:28:49;12.15;;;4.10;;
73100;SDS011;61288;53.446;-2.266;2023-03-04T16:31:16;8.77;;;3.45;;
73100;SDS011;61288;53.446;-2.266;2023-03-04T16:33:42;11.05;;;3.83;;
73100;SDS011;61288;53.446;-2.266;2023-03-04T16:36:18;11.85;;;4.38;;
73100;SDS011;61288;53.446;-2.266;2023-03-04T16:38:46;11.15;;;4.35;;
73100;SDS011;61288;53.446;-2.266;2023-03-04T16:41:13;11.88;;;4.40;;
73100;SDS011;61288;53.446;-2.266;2023-03-04T16:43:40;12.07;;;4.00;;
73100;SDS011;61288;53.446;-2.266;2023-03-04T16:46:07;13.45;;;4.28;;
73100;SDS011;61288;53.446;-2.266;2023-03-04T16:48:34;12.90;;;4.28;;
73100;SDS011;61288;53.446;-2.266;2023-03-04T16:51:02;13.68;;;4.10;;
73100;SDS011;61288;53.446;-2.266;2023-03-04T16:53:35;10.52;;;3.80;;
73100;SDS011;61288;53.446;-2.266;2023-03-04T16:56:08;11.93;;;4.00;;
73100;SDS011;61288;53.446;-2.266;2023-03-04T16:58:37;8.77;;;3.33;;
73100;SDS011;61288;53.446;-2.266;2023-03-04T17:01:02;11.85;;;4.18;;
73100;SDS011;61288;53.446;-2.266;2023-03-04T17:03:29;11.52;;;4.00;;
73100;SDS011;61288;53.446;-2.266;2023-03-04T17:05:55;11.50;;;3.90;;
73100;SDS011;61288;53.446;-2.266;2023-03-04T17:08:20;13.23;;;4.10;;
73100;SDS011;61288;53.446;-2.266;2023-03-04T17:10:46;11.15;;;4.10;;
73100;SDS011;61288;53.446;-2.266;2023-03-04T17:13:13;12.43;;;3.75;;